EVLA/LPX METAR and TAF weather

Enter ICAO airport designator
Station Type Date Time Source
EVLA METAR 2019/10/18 05:50 UTC NOAA

EVLA 180550Z AUTO 18005KT 4700 BR BKN004/// OVC018/// 14/14 Q1012


Station Type Date Time Source
EVLA Decoded METAR 2019/10/18 05:50 UTC NOAA

Liepaja International Airport, Latvia (EVLA) 56-31N 021-05E
Oct 18, 2019 - 01:50 AM EDT / 2019.10.18 0550 UTC
Wind: from the S (180 degrees) at 6 MPH (5 KT):0
Visibility: 2 mile(s):0
Sky conditions: overcast
Weather: mist
Temperature: 57 F (14 C)
Dew Point: 57 F (14 C)
Relative Humidity: 100%
Pressure (altimeter): 29.88 in. Hg (1012 hPa)
ob: EVLA 180550Z AUTO 18005KT 4700 BR BKN004/// OVC018/// 14/14 Q1012
cycle: 6

Station Type Date Time Source
EVLA TAF 2019/10/18 06:03 UTC NOAA

TAF TAF EVLA 180500Z 1806/1906 18006KT 7000 BKN003 OVC020
TEMPO 1806/1813 SCT005 OVC020
BECMG 1813/1815 OVC020

Example: see airport list